Terminal Aerodrome Forecast
Issued by NWS Sioux Falls, SD

Home | Current Version | Previous Version | Text Only | Print | Product List | Glossary On
Versions: 1 2 3 4 5 6 7 8 9 10 11 12 13
529
FTUS43 KFSD 090520
TAFFSD
TAF
KFSD 090520Z 0906/1006 31006KT P6SM SKC
     FM090800 31003KT P6SM SKC
     FM091800 VRB02KT P6SM BKN070
     FM100000 07003KT P6SM BKN040=

USA.gov is the U.S. government's official web portal to all federal, state and local government web resources and services.